sensor_id;sensor_type;location;lat;lon;timestamp;temperature;humidity
8527;DHT22;4301;48.362;8.478;2023-01-28T00:00:48;-1.90;98.10
8527;DHT22;4301;48.362;8.478;2023-01-28T00:03:16;-1.90;96.40
8527;DHT22;4301;48.362;8.478;2023-01-28T00:05:43;-1.90;95.90
8527;DHT22;4301;48.362;8.478;2023-01-28T00:08:10;-1.90;95.50
8527;DHT22;4301;48.362;8.478;2023-01-28T00:10:39;-1.80;96.60
8527;DHT22;4301;48.362;8.478;2023-01-28T00:13:08;-1.80;93.90
8527;DHT22;4301;48.362;8.478;2023-01-28T00:15:36;-1.80;92.10
8527;DHT22;4301;48.362;8.478;2023-01-28T00:18:04;-1.80;91.10
8527;DHT22;4301;48.362;8.478;2023-01-28T00:20:32;-1.80;90.40
8527;DHT22;4301;48.362;8.478;2023-01-28T00:22:59;-1.80;89.50
8527;DHT22;4301;48.362;8.478;2023-01-28T00:25:26;-1.80;93.20
8527;DHT22;4301;48.362;8.478;2023-01-28T00:27:53;-1.80;94.90
8527;DHT22;4301;48.362;8.478;2023-01-28T00:30:20;-1.80;93.60
8527;DHT22;4301;48.362;8.478;2023-01-28T00:32:48;-1.80;94.80
8527;DHT22;4301;48.362;8.478;2023-01-28T00:35:15;-1.90;97.20
8527;DHT22;4301;48.362;8.478;2023-01-28T00:37:45;-1.90;97.90
8527;DHT22;4301;48.362;8.478;2023-01-28T00:40:13;-1.90;95.80
8527;DHT22;4301;48.362;8.478;2023-01-28T00:42:40;-1.90;97.20
8527;DHT22;4301;48.362;8.478;2023-01-28T00:45:07;-1.90;98.20
8527;DHT22;4301;48.362;8.478;2023-01-28T00:47:34;-1.90;96.30
8527;DHT22;4301;48.362;8.478;2023-01-28T00:50:01;-1.90;98.10
8527;DHT22;4301;48.362;8.478;2023-01-28T00:52:28;-1.90;97.40
8527;DHT22;4301;48.362;8.478;2023-01-28T00:54:57;-1.90;93.50
8527;DHT22;4301;48.362;8.478;2023-01-28T00:57:24;-1.90;91.20
8527;DHT22;4301;48.362;8.478;2023-01-28T00:59:51;-1.90;88.30
8527;DHT22;4301;48.362;8.478;2023-01-28T01:02:18;-1.70;91.50
8527;DHT22;4301;48.362;8.478;2023-01-28T01:04:45;-1.90;88.40
8527;DHT22;4301;48.362;8.478;2023-01-28T01:07:21;-1.90;79.40
8527;DHT22;4301;48.362;8.478;2023-01-28T01:09:58;-1.90;80.10
8527;DHT22;4301;48.362;8.478;2023-01-28T01:12:26;-1.90;83.00
8527;DHT22;4301;48.362;8.478;2023-01-28T01:14:53;-1.90;84.10
8527;DHT22;4301;48.362;8.478;2023-01-28T01:17:20;-1.90;90.10
8527;DHT22;4301;48.362;8.478;2023-01-28T01:19:47;-1.90;76.90
8527;DHT22;4301;48.362;8.478;2023-01-28T01:22:14;-1.90;77.60
8527;DHT22;4301;48.362;8.478;2023-01-28T01:24:41;-1.90;75.70
8527;DHT22;4301;48.362;8.478;2023-01-28T01:27:09;-1.90;77.40
8527;DHT22;4301;48.362;8.478;2023-01-28T01:29:36;-1.90;77.70
8527;DHT22;4301;48.362;8.478;2023-01-28T01:32:04;-1.90;75.70
8527;DHT22;4301;48.362;8.478;2023-01-28T01:34:31;-1.90;78.20
8527;DHT22;4301;48.362;8.478;2023-01-28T01:36:58;-1.90;74.60
8527;DHT22;4301;48.362;8.478;2023-01-28T01:39:24;-1.80;72.30
8527;DHT22;4301;48.362;8.478;2023-01-28T01:41:51;-1.80;68.00
8527;DHT22;4301;48.362;8.478;2023-01-28T01:44:58;-1.80;70.50
8527;DHT22;4301;48.362;8.478;2023-01-28T01:47:30;-1.80;60.20
8527;DHT22;4301;48.362;8.478;2023-01-28T01:50:00;-1.80;68.60
8527;DHT22;4301;48.362;8.478;2023-01-28T01:52:32;-1.90;67.20
8527;DHT22;4301;48.362;8.478;2023-01-28T01:55:04;-1.90;66.00
8527;DHT22;4301;48.362;8.478;2023-01-28T01:57:33;-1.90;66.80
8527;DHT22;4301;48.362;8.478;2023-01-28T02:00:05;-1.90;69.90
8527;DHT22;4301;48.362;8.478;2023-01-28T02:02:36;-1.90;71.50
8527;DHT22;4301;48.362;8.478;2023-01-28T02:05:04;-1.90;75.00
8527;DHT22;4301;48.362;8.478;2023-01-28T02:07:32;-1.90;69.50
8527;DHT22;4301;48.362;8.478;2023-01-28T02:09:59;-1.90;75.80
8527;DHT22;4301;48.362;8.478;2023-01-28T02:12:29;-1.90;73.40
8527;DHT22;4301;48.362;8.478;2023-01-28T02:15:00;-1.90;64.40
8527;DHT22;4301;48.362;8.478;2023-01-28T02:17:29;-1.90;60.00
8527;DHT22;4301;48.362;8.478;2023-01-28T02:19:59;-1.90;72.40
8527;DHT22;4301;48.362;8.478;2023-01-28T02:28:31;-1.90;72.10
8527;DHT22;4301;48.362;8.478;2023-01-28T02:31:05;-1.90;72.80
8527;DHT22;4301;48.362;8.478;2023-01-28T02:33:37;-1.90;75.00
8527;DHT22;4301;48.362;8.478;2023-01-28T02:36:12;-1.90;76.50
8527;DHT22;4301;48.362;8.478;2023-01-28T02:38:45;-2.10;89.90
8527;DHT22;4301;48.362;8.478;2023-01-28T02:41:20;-1.90;91.70
8527;DHT22;4301;48.362;8.478;2023-01-28T02:43:50;-1.90;89.00
8527;DHT22;4301;48.362;8.478;2023-01-28T02:46:31;-1.90;91.60
8527;DHT22;4301;48.362;8.478;2023-01-28T02:49:18;-1.90;91.90
8527;DHT22;4301;48.362;8.478;2023-01-28T02:51:56;-1.90;91.60
8527;DHT22;4301;48.362;8.478;2023-01-28T02:54:33;-1.90;99.20
8527;DHT22;4301;48.362;8.478;2023-01-28T02:57:11;-1.90;93.60
8527;DHT22;4301;48.362;8.478;2023-01-28T02:59:48;-1.90;93.70
8527;DHT22;4301;48.362;8.478;2023-01-28T03:02:20;-1.90;95.90
8527;DHT22;4301;48.362;8.478;2023-01-28T03:04:52;-1.90;95.00
8527;DHT22;4301;48.362;8.478;2023-01-28T03:07:25;-2.00;93.70
8527;DHT22;4301;48.362;8.478;2023-01-28T03:09:54;-1.90;99.90
8527;DHT22;4301;48.362;8.478;2023-01-28T03:12:25;-1.90;97.10
8527;DHT22;4301;48.362;8.478;2023-01-28T03:15:14;-1.90;99.40
8527;DHT22;4301;48.362;8.478;2023-01-28T03:18:02;-1.90;99.30
8527;DHT22;4301;48.362;8.478;2023-01-28T03:20:50;-1.90;99.20
8527;DHT22;4301;48.362;8.478;2023-01-28T03:23:46;-1.90;99.20
8527;DHT22;4301;48.362;8.478;2023-01-28T03:26:30;-1.90;99.90
8527;DHT22;4301;48.362;8.478;2023-01-28T03:29:19;-1.90;99.90
8527;DHT22;4301;48.362;8.478;2023-01-28T03:32:05;-1.90;99.90
8527;DHT22;4301;48.362;8.478;2023-01-28T03:34:51;-1.90;99.90
8527;DHT22;4301;48.362;8.478;2023-01-28T03:37:36;-1.90;99.90
8527;DHT22;4301;48.362;8.478;2023-01-28T03:40:05;-1.90;99.90
8527;DHT22;4301;48.362;8.478;2023-01-28T03:42:32;-1.90;99.90
8527;DHT22;4301;48.362;8.478;2023-01-28T03:44:59;-1.90;99.90
8527;DHT22;4301;48.362;8.478;2023-01-28T03:47:31;-1.90;99.90
8527;DHT22;4301;48.362;8.478;2023-01-28T03:49:58;-1.90;99.90
8527;DHT22;4301;48.362;8.478;2023-01-28T03:52:27;-1.90;99.90
8527;DHT22;4301;48.362;8.478;2023-01-28T03:54:55;-1.90;99.90
8527;DHT22;4301;48.362;8.478;2023-01-28T03:57:23;-1.90;99.90
8527;DHT22;4301;48.362;8.478;2023-01-28T03:59:51;-1.90;99.90
8527;DHT22;4301;48.362;8.478;2023-01-28T04:02:19;-1.90;99.90
8527;DHT22;4301;48.362;8.478;2023-01-28T04:04:48;-1.90;99.90
8527;DHT22;4301;48.362;8.478;2023-01-28T04:07:16;-1.90;99.90
8527;DHT22;4301;48.362;8.478;2023-01-28T04:09:43;-1.90;99.90
8527;DHT22;4301;48.362;8.478;2023-01-28T04:12:10;-1.90;99.90
8527;DHT22;4301;48.362;8.478;2023-01-28T04:14:37;-1.90;99.90
8527;DHT22;4301;48.362;8.478;2023-01-28T04:17:05;-1.90;99.90
8527;DHT22;4301;48.362;8.478;2023-01-28T04:19:35;-1.90;99.90
8527;DHT22;4301;48.362;8.478;2023-01-28T04:22:06;-1.90;99.90
8527;DHT22;4301;48.362;8.478;2023-01-28T04:24:35;-1.90;99.90
8527;DHT22;4301;48.362;8.478;2023-01-28T04:27:02;-1.90;99.90
8527;DHT22;4301;48.362;8.478;2023-01-28T04:29:29;-1.90;99.90
8527;DHT22;4301;48.362;8.478;2023-01-28T04:31:56;-1.80;99.90
8527;DHT22;4301;48.362;8.478;2023-01-28T04:34:23;-1.90;99.90
8527;DHT22;4301;48.362;8.478;2023-01-28T04:36:50;-1.90;99.90
8527;DHT22;4301;48.362;8.478;2023-01-28T04:39:19;-1.90;99.90
8527;DHT22;4301;48.362;8.478;2023-01-28T04:41:45;-1.80;99.90
8527;DHT22;4301;48.362;8.478;2023-01-28T04:44:12;-1.90;99.90
8527;DHT22;4301;48.362;8.478;2023-01-28T04:46:41;-1.80;99.90
8527;DHT22;4301;48.362;8.478;2023-01-28T04:49:08;-1.80;99.90
8527;DHT22;4301;48.362;8.478;2023-01-28T04:51:35;-1.80;99.90
8527;DHT22;4301;48.362;8.478;2023-01-28T04:54:02;-1.80;99.90
8527;DHT22;4301;48.362;8.478;2023-01-28T04:56:30;-1.80;99.90
8527;DHT22;4301;48.362;8.478;2023-01-28T04:58:57;-1.80;99.90
8527;DHT22;4301;48.362;8.478;2023-01-28T05:01:25;-1.80;99.90
8527;DHT22;4301;48.362;8.478;2023-01-28T05:03:52;-1.80;99.90
8527;DHT22;4301;48.362;8.478;2023-01-28T05:06:18;-1.80;99.90
8527;DHT22;4301;48.362;8.478;2023-01-28T05:08:45;-1.80;99.90
8527;DHT22;4301;48.362;8.478;2023-01-28T05:11:12;-1.80;99.90
8527;DHT22;4301;48.362;8.478;2023-01-28T05:13:41;-1.90;99.90
8527;DHT22;4301;48.362;8.478;2023-01-28T05:16:07;-1.80;99.90
8527;DHT22;4301;48.362;8.478;2023-01-28T05:18:34;-1.80;99.90
8527;DHT22;4301;48.362;8.478;2023-01-28T05:21:01;-1.80;99.90
8527;DHT22;4301;48.362;8.478;2023-01-28T05:23:28;-1.80;99.90
8527;DHT22;4301;48.362;8.478;2023-01-28T05:25:55;-1.80;99.90
8527;DHT22;4301;48.362;8.478;2023-01-28T05:28:22;-1.80;99.90
8527;DHT22;4301;48.362;8.478;2023-01-28T05:30:50;-1.80;99.90
8527;DHT22;4301;48.362;8.478;2023-01-28T05:33:17;-1.70;99.90
8527;DHT22;4301;48.362;8.478;2023-01-28T05:35:44;-1.70;99.90
8527;DHT22;4301;48.362;8.478;2023-01-28T05:38:11;-1.70;99.90
8527;DHT22;4301;48.362;8.478;2023-01-28T05:40:38;-1.80;99.90
8527;DHT22;4301;48.362;8.478;2023-01-28T05:43:05;-1.70;99.90
8527;DHT22;4301;48.362;8.478;2023-01-28T05:45:32;-1.70;99.90
8527;DHT22;4301;48.362;8.478;2023-01-28T05:48:00;-1.70;99.90
8527;DHT22;4301;48.362;8.478;2023-01-28T05:50:27;-1.70;99.90
8527;DHT22;4301;48.362;8.478;2023-01-28T05:52:54;-1.70;99.90
8527;DHT22;4301;48.362;8.478;2023-01-28T05:55:21;-1.70;99.90
8527;DHT22;4301;48.362;8.478;2023-01-28T05:57:48;-1.80;99.90
8527;DHT22;4301;48.362;8.478;2023-01-28T06:00:16;-1.70;99.90
8527;DHT22;4301;48.362;8.478;2023-01-28T06:02:43;-1.70;99.90
8527;DHT22;4301;48.362;8.478;2023-01-28T06:05:11;-1.70;99.90
8527;DHT22;4301;48.362;8.478;2023-01-28T06:07:38;-1.70;99.90
8527;DHT22;4301;48.362;8.478;2023-01-28T06:10:06;-1.70;99.90
8527;DHT22;4301;48.362;8.478;2023-01-28T06:12:33;-1.80;99.90
8527;DHT22;4301;48.362;8.478;2023-01-28T06:15:00;-1.70;99.90
8527;DHT22;4301;48.362;8.478;2023-01-28T06:17:27;-1.70;99.90
8527;DHT22;4301;48.362;8.478;2023-01-28T06:19:54;-1.70;99.90
8527;DHT22;4301;48.362;8.478;2023-01-28T06:22:22;-1.70;99.90
8527;DHT22;4301;48.362;8.478;2023-01-28T06:24:49;-1.70;99.90
8527;DHT22;4301;48.362;8.478;2023-01-28T06:27:16;-1.70;99.90
8527;DHT22;4301;48.362;8.478;2023-01-28T06:29:43;-1.60;99.90
8527;DHT22;4301;48.362;8.478;2023-01-28T06:32:10;-1.60;99.90
8527;DHT22;4301;48.362;8.478;2023-01-28T06:34:37;-1.70;99.90
8527;DHT22;4301;48.362;8.478;2023-01-28T06:37:04;-1.60;99.90
8527;DHT22;4301;48.362;8.478;2023-01-28T06:39:33;-1.70;99.90
8527;DHT22;4301;48.362;8.478;2023-01-28T06:42:00;-1.60;99.90
8527;DHT22;4301;48.362;8.478;2023-01-28T06:44:27;-1.60;99.90
8527;DHT22;4301;48.362;8.478;2023-01-28T06:46:54;-1.70;99.90
8527;DHT22;4301;48.362;8.478;2023-01-28T06:49:21;-1.70;99.90
8527;DHT22;4301;48.362;8.478;2023-01-28T06:51:48;-1.70;99.90
8527;DHT22;4301;48.362;8.478;2023-01-28T06:54:15;-1.70;99.90
8527;DHT22;4301;48.362;8.478;2023-01-28T06:56:43;-1.70;99.90
8527;DHT22;4301;48.362;8.478;2023-01-28T06:59:10;-1.70;99.90
8527;DHT22;4301;48.362;8.478;2023-01-28T07:01:37;-1.70;99.90
8527;DHT22;4301;48.362;8.478;2023-01-28T07:04:04;-1.70;99.90
8527;DHT22;4301;48.362;8.478;2023-01-28T07:06:32;-1.70;99.90
8527;DHT22;4301;48.362;8.478;2023-01-28T07:08:59;-1.70;99.90
8527;DHT22;4301;48.362;8.478;2023-01-28T07:11:25;-1.70;99.90
8527;DHT22;4301;48.362;8.478;2023-01-28T07:13:54;-1.60;99.90
8527;DHT22;4301;48.362;8.478;2023-01-28T07:16:21;-1.60;99.70
8527;DHT22;4301;48.362;8.478;2023-01-28T07:18:47;-1.60;99.90
8527;DHT22;4301;48.362;8.478;2023-01-28T07:21:15;-1.60;99.50
8527;DHT22;4301;48.362;8.478;2023-01-28T07:23:42;-1.50;97.40
8527;DHT22;4301;48.362;8.478;2023-01-28T07:26:09;-1.60;94.40
8527;DHT22;4301;48.362;8.478;2023-01-28T07:28:37;-1.60;97.70
8527;DHT22;4301;48.362;8.478;2023-01-28T07:31:05;-1.60;94.40
8527;DHT22;4301;48.362;8.478;2023-01-28T07:33:32;-1.50;97.30
8527;DHT22;4301;48.362;8.478;2023-01-28T07:35:59;-1.50;92.80
8527;DHT22;4301;48.362;8.478;2023-01-28T07:38:26;-1.50;90.00
8527;DHT22;4301;48.362;8.478;2023-01-28T07:40:53;-1.50;89.70
8527;DHT22;4301;48.362;8.478;2023-01-28T07:43:20;-1.50;91.50
8527;DHT22;4301;48.362;8.478;2023-01-28T07:45:47;-1.50;89.40
8527;DHT22;4301;48.362;8.478;2023-01-28T07:48:15;-1.50;94.10
8527;DHT22;4301;48.362;8.478;2023-01-28T07:50:43;-1.50;81.00
8527;DHT22;4301;48.362;8.478;2023-01-28T07:53:11;-1.40;83.20
8527;DHT22;4301;48.362;8.478;2023-01-28T07:55:38;-1.40;89.10
8527;DHT22;4301;48.362;8.478;2023-01-28T07:58:06;-1.30;88.50
8527;DHT22;4301;48.362;8.478;2023-01-28T08:00:35;-1.40;89.10
8527;DHT22;4301;48.362;8.478;2023-01-28T08:03:04;-1.30;81.90
8527;DHT22;4301;48.362;8.478;2023-01-28T08:05:37;-1.30;85.10
8527;DHT22;4301;48.362;8.478;2023-01-28T08:08:06;-1.30;79.90
8527;DHT22;4301;48.362;8.478;2023-01-28T08:10:33;-1.30;61.80
8527;DHT22;4301;48.362;8.478;2023-01-28T08:13:00;-1.30;72.70
8527;DHT22;4301;48.362;8.478;2023-01-28T08:15:28;-1.20;72.90
8527;DHT22;4301;48.362;8.478;2023-01-28T08:17:56;-1.20;67.30
8527;DHT22;4301;48.362;8.478;2023-01-28T08:20:23;-1.10;44.20
8527;DHT22;4301;48.362;8.478;2023-01-28T08:22:52;-1.00;38.10
8527;DHT22;4301;48.362;8.478;2023-01-28T08:25:19;-0.90;9.70
8527;DHT22;4301;48.362;8.478;2023-01-28T08:27:46;-0.90;12.80
8527;DHT22;4301;48.362;8.478;2023-01-28T08:30:14;-0.90;7.60
8527;DHT22;4301;48.362;8.478;2023-01-28T08:32:40;-0.90;1.00
8527;DHT22;4301;48.362;8.478;2023-01-28T08:35:08;-0.90;1.00
8527;DHT22;4301;48.362;8.478;2023-01-28T08:37:34;-0.90;1.00
8527;DHT22;4301;48.362;8.478;2023-01-28T08:40:04;-0.90;4.70
8527;DHT22;4301;48.362;8.478;2023-01-28T08:42:31;-0.90;1.00
8527;DHT22;4301;48.362;8.478;2023-01-28T08:44:58;-0.90;1.00
8527;DHT22;4301;48.362;8.478;2023-01-28T08:47:25;-0.80;1.00
8527;DHT22;4301;48.362;8.478;2023-01-28T08:49:51;-0.90;1.00
8527;DHT22;4301;48.362;8.478;2023-01-28T08:52:18;-0.90;1.00
8527;DHT22;4301;48.362;8.478;2023-01-28T08:54:45;-0.80;1.00
8527;DHT22;4301;48.362;8.478;2023-01-28T08:57:14;-0.80;1.00
8527;DHT22;4301;48.362;8.478;2023-01-28T08:59:41;-0.80;1.00
8527;DHT22;4301;48.362;8.478;2023-01-28T09:02:12;-0.80;1.00
8527;DHT22;4301;48.362;8.478;2023-01-28T09:04:39;-0.80;1.00
8527;DHT22;4301;48.362;8.478;2023-01-28T09:07:07;-0.70;1.00
8527;DHT22;4301;48.362;8.478;2023-01-28T09:09:34;-0.70;1.00
8527;DHT22;4301;48.362;8.478;2023-01-28T09:12:01;-0.70;1.00
8527;DHT22;4301;48.362;8.478;2023-01-28T09:14:29;-0.70;1.00
8527;DHT22;4301;48.362;8.478;2023-01-28T09:16:56;-0.60;1.00
8527;DHT22;4301;48.362;8.478;2023-01-28T09:19:23;-0.60;1.00
8527;DHT22;4301;48.362;8.478;2023-01-28T09:21:50;-0.60;1.00
8527;DHT22;4301;48.362;8.478;2023-01-28T09:24:17;-0.60;1.00
8527;DHT22;4301;48.362;8.478;2023-01-28T09:26:44;-0.60;1.00
8527;DHT22;4301;48.362;8.478;2023-01-28T09:29:11;-0.50;1.00
8527;DHT22;4301;48.362;8.478;2023-01-28T09:31:40;-0.50;1.00
8527;DHT22;4301;48.362;8.478;2023-01-28T09:34:08;-0.60;1.00
8527;DHT22;4301;48.362;8.478;2023-01-28T09:36:35;-0.60;1.00
8527;DHT22;4301;48.362;8.478;2023-01-28T09:39:02;-0.50;1.00
8527;DHT22;4301;48.362;8.478;2023-01-28T09:41:38;-0.50;1.00
8527;DHT22;4301;48.362;8.478;2023-01-28T09:44:28;-0.50;1.00
8527;DHT22;4301;48.362;8.478;2023-01-28T09:47:01;-0.50;1.00
8527;DHT22;4301;48.362;8.478;2023-01-28T09:49:34;-0.50;1.00
8527;DHT22;4301;48.362;8.478;2023-01-28T09:52:02;-0.40;1.00
8527;DHT22;4301;48.362;8.478;2023-01-28T09:54:37;-0.20;1.00
8527;DHT22;4301;48.362;8.478;2023-01-28T09:57:12;0.00;1.00
8527;DHT22;4301;48.362;8.478;2023-01-28T09:59:39;0.10;1.00
8527;DHT22;4301;48.362;8.478;2023-01-28T10:02:29;0.20;1.00
8527;DHT22;4301;48.362;8.478;2023-01-28T10:05:11;0.10;1.00
8527;DHT22;4301;48.362;8.478;2023-01-28T10:07:45;0.20;1.00
8527;DHT22;4301;48.362;8.478;2023-01-28T10:10:16;0.30;1.00
8527;DHT22;4301;48.362;8.478;2023-01-28T10:13:01;0.30;1.00
8527;DHT22;4301;48.362;8.478;2023-01-28T10:15:49;0.30;1.00
8527;DHT22;4301;48.362;8.478;2023-01-28T10:18:25;0.30;1.00
8527;DHT22;4301;48.362;8.478;2023-01-28T10:20:59;0.40;99.90
8527;DHT22;4301;48.362;8.478;2023-01-28T10:23:30;0.50;1.00
8527;DHT22;4301;48.362;8.478;2023-01-28T10:26:04;0.70;99.90
8527;DHT22;4301;48.362;8.478;2023-01-28T10:28:33;1.00;99.90
8527;DHT22;4301;48.362;8.478;2023-01-28T10:31:01;1.10;99.90
8527;DHT22;4301;48.362;8.478;2023-01-28T10:33:34;1.10;1.00
8527;DHT22;4301;48.362;8.478;2023-01-28T10:36:02;1.20;1.00
8527;DHT22;4301;48.362;8.478;2023-01-28T10:38:30;1.20;99.90
8527;DHT22;4301;48.362;8.478;2023-01-28T10:41:00;1.10;99.90
8527;DHT22;4301;48.362;8.478;2023-01-28T10:43:30;0.90;1.00
8527;DHT22;4301;48.362;8.478;2023-01-28T10:46:02;0.90;99.90
8527;DHT22;4301;48.362;8.478;2023-01-28T10:48:34;0.90;1.00
8527;DHT22;4301;48.362;8.478;2023-01-28T10:51:03;1.00;99.90
8527;DHT22;4301;48.362;8.478;2023-01-28T10:53:38;1.10;99.90
8527;DHT22;4301;48.362;8.478;2023-01-28T10:56:07;1.20;99.90
8527;DHT22;4301;48.362;8.478;2023-01-28T10:58:46;1.20;87.40
8527;DHT22;4301;48.362;8.478;2023-01-28T11:01:14;1.20;99.90
8527;DHT22;4301;48.362;8.478;2023-01-28T11:03:52;1.20;1.00
8527;DHT22;4301;48.362;8.478;2023-01-28T11:06:24;1.10;99.90
8527;DHT22;4301;48.362;8.478;2023-01-28T11:08:52;1.20;1.00
8527;DHT22;4301;48.362;8.478;2023-01-28T11:11:23;1.20;99.90
8527;DHT22;4301;48.362;8.478;2023-01-28T11:13:51;1.20;99.90
8527;DHT22;4301;48.362;8.478;2023-01-28T11:16:20;1.20;99.90
8527;DHT22;4301;48.362;8.478;2023-01-28T11:18:51;1.10;1.00
8527;DHT22;4301;48.362;8.478;2023-01-28T11:21:20;1.00;1.00
8527;DHT22;4301;48.362;8.478;2023-01-28T11:23:50;1.00;99.90
8527;DHT22;4301;48.362;8.478;2023-01-28T11:26:22;1.10;99.90
8527;DHT22;4301;48.362;8.478;2023-01-28T11:28:50;1.30;90.70
8527;DHT22;4301;48.362;8.478;2023-01-28T11:31:20;1.30;1.00
8527;DHT22;4301;48.362;8.478;2023-01-28T11:33:52;1.30;99.90
8527;DHT22;4301;48.362;8.478;2023-01-28T11:36:23;1.20;1.00
8527;DHT22;4301;48.362;8.478;2023-01-28T11:38:51;1.20;91.80
8527;DHT22;4301;48.362;8.478;2023-01-28T11:41:24;1.10;99.90
8527;DHT22;4301;48.362;8.478;2023-01-28T11:43:53;1.20;99.90
8527;DHT22;4301;48.362;8.478;2023-01-28T11:46:43;1.10;1.00
8527;DHT22;4301;48.362;8.478;2023-01-28T11:49:24;1.10;1.00
8527;DHT22;4301;48.362;8.478;2023-01-28T11:51:58;1.00;99.90
8527;DHT22;4301;48.362;8.478;2023-01-28T11:54:38;1.10;99.90
8527;DHT22;4301;48.362;8.478;2023-01-28T11:57:20;1.30;1.00
8527;DHT22;4301;48.362;8.478;2023-01-28T12:00:24;1.60;99.90
8527;DHT22;4301;48.362;8.478;2023-01-28T12:03:00;1.90;1.00
8527;DHT22;4301;48.362;8.478;2023-01-28T12:05:47;2.30;1.00
8527;DHT22;4301;48.362;8.478;2023-01-28T12:08:23;2.80;92.10
8527;DHT22;4301;48.362;8.478;2023-01-28T12:11:06;3.10;1.00
8527;DHT22;4301;48.362;8.478;2023-01-28T12:13:43;2.80;99.90
8527;DHT22;4301;48.362;8.478;2023-01-28T12:19:25;2.20;1.00
8527;DHT22;4301;48.362;8.478;2023-01-28T12:22:25;1.90;99.90
8527;DHT22;4301;48.362;8.478;2023-01-28T12:25:05;1.80;99.90
8527;DHT22;4301;48.362;8.478;2023-01-28T12:27:43;1.60;1.00
8527;DHT22;4301;48.362;8.478;2023-01-28T12:30:23;1.40;99.90
8527;DHT22;4301;48.362;8.478;2023-01-28T12:33:01;1.40;30.50
8527;DHT22;4301;48.362;8.478;2023-01-28T12:35:47;1.30;99.90
8527;DHT22;4301;48.362;8.478;2023-01-28T12:38:25;1.20;1.00
8527;DHT22;4301;48.362;8.478;2023-01-28T12:40:58;1.00;1.00
8527;DHT22;4301;48.362;8.478;2023-01-28T12:43:42;0.90;1.00
8527;DHT22;4301;48.362;8.478;2023-01-28T12:46:17;0.80;99.90
8527;DHT22;4301;48.362;8.478;2023-01-28T12:48:51;0.80;1.00
8527;DHT22;4301;48.362;8.478;2023-01-28T12:51:26;0.70;1.00
8527;DHT22;4301;48.362;8.478;2023-01-28T12:53:59;0.70;1.00
8527;DHT22;4301;48.362;8.478;2023-01-28T12:56:28;0.70;99.90
8527;DHT22;4301;48.362;8.478;2023-01-28T12:59:00;0.70;1.00
8527;DHT22;4301;48.362;8.478;2023-01-28T13:01:41;0.60;1.00
8527;DHT22;4301;48.362;8.478;2023-01-28T13:04:15;0.60;99.90
8527;DHT22;4301;48.362;8.478;2023-01-28T13:06:47;0.60;1.00
8527;DHT22;4301;48.362;8.478;2023-01-28T13:09:19;0.50;1.00
8527;DHT22;4301;48.362;8.478;2023-01-28T13:11:47;0.60;99.90
8527;DHT22;4301;48.362;8.478;2023-01-28T13:14:16;0.50;99.90
8527;DHT22;4301;48.362;8.478;2023-01-28T13:16:43;0.50;99.90
8527;DHT22;4301;48.362;8.478;2023-01-28T13:19:22;0.40;1.00
8527;DHT22;4301;48.362;8.478;2023-01-28T13:21:49;0.40;97.70
8527;DHT22;4301;48.362;8.478;2023-01-28T13:24:29;0.40;91.00
8527;DHT22;4301;48.362;8.478;2023-01-28T13:26:57;0.40;99.90
8527;DHT22;4301;48.362;8.478;2023-01-28T13:29:30;0.50;99.90
8527;DHT22;4301;48.362;8.478;2023-01-28T13:31:59;0.50;99.90
8527;DHT22;4301;48.362;8.478;2023-01-28T13:34:29;0.50;37.10
8527;DHT22;4301;48.362;8.478;2023-01-28T13:37:01;0.50;99.90
8527;DHT22;4301;48.362;8.478;2023-01-28T13:39:33;0.50;99.90
8527;DHT22;4301;48.362;8.478;2023-01-28T13:42:18;0.50;99.90
8527;DHT22;4301;48.362;8.478;2023-01-28T13:44:46;0.50;99.90
8527;DHT22;4301;48.362;8.478;2023-01-28T13:47:20;0.50;99.90
8527;DHT22;4301;48.362;8.478;2023-01-28T13:49:50;0.50;99.90
8527;DHT22;4301;48.362;8.478;2023-01-28T13:52:25;0.40;99.90
8527;DHT22;4301;48.362;8.478;2023-01-28T13:54:55;0.30;1.00
8527;DHT22;4301;48.362;8.478;2023-01-28T13:57:42;0.40;1.00
8527;DHT22;4301;48.362;8.478;2023-01-28T14:00:20;0.40;1.00
8527;DHT22;4301;48.362;8.478;2023-01-28T14:06:20;0.30;1.00
8527;DHT22;4301;48.362;8.478;2023-01-28T14:09:02;0.20;1.00
8527;DHT22;4301;48.362;8.478;2023-01-28T14:15:10;0.30;1.00
8527;DHT22;4301;48.362;8.478;2023-01-28T14:17:43;0.40;1.00
8527;DHT22;4301;48.362;8.478;2023-01-28T14:20:19;0.30;1.00
8527;DHT22;4301;48.362;8.478;2023-01-28T14:22:47;0.40;1.00
8527;DHT22;4301;48.362;8.478;2023-01-28T14:25:17;0.40;1.00
8527;DHT22;4301;48.362;8.478;2023-01-28T14:27:50;0.30;1.00
8527;DHT22;4301;48.362;8.478;2023-01-28T14:30:24;0.30;1.00
8527;DHT22;4301;48.362;8.478;2023-01-28T14:32:54;0.30;1.00
8527;DHT22;4301;48.362;8.478;2023-01-28T14:35:27;0.30;1.00
8527;DHT22;4301;48.362;8.478;2023-01-28T14:37:55;0.30;1.00
8527;DHT22;4301;48.362;8.478;2023-01-28T14:40:23;0.20;1.00
8527;DHT22;4301;48.362;8.478;2023-01-28T14:42:53;0.20;1.00
8527;DHT22;4301;48.362;8.478;2023-01-28T14:45:35;0.20;1.00
8527;DHT22;4301;48.362;8.478;2023-01-28T14:48:13;0.10;1.00
8527;DHT22;4301;48.362;8.478;2023-01-28T14:51:01;0.10;1.00
8527;DHT22;4301;48.362;8.478;2023-01-28T14:53:42;0.20;1.00
8527;DHT22;4301;48.362;8.478;2023-01-28T14:56:21;0.20;1.00
8527;DHT22;4301;48.362;8.478;2023-01-28T14:58:53;0.10;1.00
8527;DHT22;4301;48.362;8.478;2023-01-28T15:01:26;0.10;2.70
8527;DHT22;4301;48.362;8.478;2023-01-28T15:03:54;0.10;12.10
8527;DHT22;4301;48.362;8.478;2023-01-28T15:06:22;0.10;1.00
8527;DHT22;4301;48.362;8.478;2023-01-28T15:08:50;0.10;1.00
8527;DHT22;4301;48.362;8.478;2023-01-28T15:11:20;0.10;1.00
8527;DHT22;4301;48.362;8.478;2023-01-28T15:13:51;0.10;1.00
8527;DHT22;4301;48.362;8.478;2023-01-28T15:16:21;0.10;1.00
8527;DHT22;4301;48.362;8.478;2023-01-28T15:18:50;0.10;1.00
8527;DHT22;4301;48.362;8.478;2023-01-28T15:21:19;0.10;1.00
8527;DHT22;4301;48.362;8.478;2023-01-28T15:23:49;0.00;1.00
8527;DHT22;4301;48.362;8.478;2023-01-28T15:26:19;0.00;1.00
8527;DHT22;4301;48.362;8.478;2023-01-28T15:28:47;0.00;1.00
8527;DHT22;4301;48.362;8.478;2023-01-28T15:31:19;-0.10;1.00
8527;DHT22;4301;48.362;8.478;2023-01-28T15:33:56;-0.10;1.00
8527;DHT22;4301;48.362;8.478;2023-01-28T15:36:23;-0.10;2.70
8527;DHT22;4301;48.362;8.478;2023-01-28T15:38:51;-0.20;1.00
8527;DHT22;4301;48.362;8.478;2023-01-28T15:41:21;-0.20;15.40
8527;DHT22;4301;48.362;8.478;2023-01-28T15:43:50;-0.20;1.00
8527;DHT22;4301;48.362;8.478;2023-01-28T15:46:18;-0.20;1.00
8527;DHT22;4301;48.362;8.478;2023-01-28T15:48:48;-0.20;1.00
8527;DHT22;4301;48.362;8.478;2023-01-28T15:51:23;-0.20;1.00
8527;DHT22;4301;48.362;8.478;2023-01-28T15:53:54;-0.20;2.60
8527;DHT22;4301;48.362;8.478;2023-01-28T15:56:24;-0.20;1.00
8527;DHT22;4301;48.362;8.478;2023-01-28T15:58:52;-0.20;1.00
8527;DHT22;4301;48.362;8.478;2023-01-28T16:01:21;-0.30;1.00
8527;DHT22;4301;48.362;8.478;2023-01-28T16:04:00;-0.20;1.00
8527;DHT22;4301;48.362;8.478;2023-01-28T16:06:33;-0.30;1.00
8527;DHT22;4301;48.362;8.478;2023-01-28T16:09:02;-0.30;1.00
8527;DHT22;4301;48.362;8.478;2023-01-28T16:11:32;-0.10;1.00
8527;DHT22;4301;48.362;8.478;2023-01-28T16:13:59;-0.30;2.80
8527;DHT22;4301;48.362;8.478;2023-01-28T16:16:29;-0.30;1.00
8527;DHT22;4301;48.362;8.478;2023-01-28T16:18:57;-0.30;6.20
8527;DHT22;4301;48.362;8.478;2023-01-28T16:21:25;-0.30;1.00
8527;DHT22;4301;48.362;8.478;2023-01-28T16:23:59;-0.20;6.60
8527;DHT22;4301;48.362;8.478;2023-01-28T16:26:27;-0.30;17.00
8527;DHT22;4301;48.362;8.478;2023-01-28T16:28:55;-0.30;14.10
8527;DHT22;4301;48.362;8.478;2023-01-28T16:31:22;-0.30;23.20
8527;DHT22;4301;48.362;8.478;2023-01-28T16:33:49;-0.30;26.30
8527;DHT22;4301;48.362;8.478;2023-01-28T16:36:16;-0.30;27.00
8527;DHT22;4301;48.362;8.478;2023-01-28T16:38:44;-0.30;18.10
8527;DHT22;4301;48.362;8.478;2023-01-28T16:41:13;-0.30;9.60
8527;DHT22;4301;48.362;8.478;2023-01-28T16:43:41;-0.30;11.40
8527;DHT22;4301;48.362;8.478;2023-01-28T16:46:11;-0.30;12.80
8527;DHT22;4301;48.362;8.478;2023-01-28T16:48:38;-0.40;13.40
8527;DHT22;4301;48.362;8.478;2023-01-28T16:51:08;-0.30;25.20